createdAt,value
2017-05-16T00:00:23.356Z,18.03
2017-05-16T00:05:00.155Z,18.03
2017-05-16T00:08:32.314Z,18.00
2017-05-16T00:09:33.071Z,18.01
2017-05-16T00:10:33.799Z,18.03
2017-05-16T00:11:34.525Z,17.98
2017-05-16T00:12:35.254Z,17.85
2017-05-16T00:13:36.237Z,17.87
2017-05-16T00:14:36.969Z,17.86
2017-05-16T00:19:24.770Z,17.80
2017-05-16T00:20:25.502Z,17.87
2017-05-16T00:21:26.233Z,17.90
2017-05-16T00:22:26.968Z,17.85
2017-05-16T00:23:27.689Z,17.86
2017-05-16T00:24:28.722Z,17.89
2017-05-16T00:25:29.453Z,17.87
2017-05-16T00:26:30.186Z,17.85
2017-05-16T00:27:30.922Z,17.85
2017-05-16T00:28:31.653Z,17.90
2017-05-16T00:29:32.683Z,17.89
2017-05-16T00:30:33.442Z,17.83
2017-05-16T00:31:34.171Z,17.95
2017-05-16T00:32:34.904Z,17.83
2017-05-16T00:33:35.631Z,17.85
2017-05-16T00:34:36.660Z,17.87
2017-05-16T00:35:37.394Z,17.89
2017-05-16T00:36:38.125Z,17.78
2017-05-16T00:37:39.055Z,17.83
2017-05-16T00:38:39.785Z,17.72
2017-05-16T00:39:40.814Z,17.72
2017-05-16T00:40:41.547Z,17.83
2017-05-16T00:41:42.278Z,17.74
2017-05-16T00:42:43.012Z,17.80
2017-05-16T00:43:43.740Z,17.74
2017-05-16T00:44:44.769Z,17.72
2017-05-16T00:45:45.500Z,17.78
2017-05-16T00:46:46.228Z,17.78
2017-05-16T00:47:46.959Z,17.78
2017-05-16T00:48:47.688Z,17.76
2017-05-16T00:49:48.768Z,17.76
2017-05-16T00:50:49.523Z,17.76
2017-05-16T00:51:50.279Z,17.71
2017-05-16T00:52:51.004Z,17.65
2017-05-16T00:53:51.733Z,17.67
2017-05-16T00:54:52.763Z,17.65
2017-05-16T00:55:53.753Z,17.67
2017-05-16T00:56:54.482Z,17.67
2017-05-16T00:57:55.238Z,17.65
2017-05-16T00:58:55.964Z,17.65
2017-05-16T00:59:56.996Z,17.67
2017-05-16T01:00:57.726Z,17.64
2017-05-16T01:01:58.456Z,17.63
2017-05-16T01:02:59.185Z,17.64
2017-05-16T01:03:59.941Z,17.64
2017-05-16T01:05:00.969Z,17.64
2017-05-16T01:06:01.700Z,17.63
2017-05-16T01:07:02.430Z,17.59
2017-05-16T01:08:03.158Z,17.60
2017-05-16T01:09:03.889Z,17.56
2017-05-16T01:10:04.917Z,17.63
2017-05-16T01:11:05.674Z,17.59
2017-05-16T01:12:06.407Z,17.65
2017-05-16T01:13:07.130Z,17.60
2017-05-16T01:14:08.063Z,17.65
2017-05-16T01:15:09.110Z,17.54
2017-05-16T01:16:09.841Z,17.67
2017-05-16T01:17:10.569Z,17.57
2017-05-16T01:18:11.323Z,17.52
2017-05-16T01:19:12.053Z,17.49
2017-05-16T01:20:13.082Z,17.57
2017-05-16T01:21:13.811Z,17.51
2017-05-16T01:22:14.540Z,17.48
2017-05-16T01:23:15.268Z,17.46
2017-05-16T01:24:15.998Z,17.49
2017-05-16T01:25:16.978Z,17.44
2017-05-16T01:26:17.699Z,17.49
2017-05-16T01:27:18.429Z,17.46
2017-05-16T01:28:19.161Z,17.45
2017-05-16T01:29:19.915Z,17.42
2017-05-16T01:30:20.896Z,17.46
2017-05-16T01:31:21.626Z,17.52
2017-05-16T01:32:22.386Z,17.39
2017-05-16T01:33:23.112Z,17.41
2017-05-16T01:34:23.841Z,17.39
2017-05-16T01:35:24.823Z,17.41
2017-05-16T01:36:25.550Z,17.38
2017-05-16T01:37:26.276Z,17.38
2017-05-16T01:38:27.005Z,17.41
2017-05-16T01:39:27.734Z,17.34
2017-05-16T01:40:28.712Z,17.33
2017-05-16T01:41:29.439Z,17.38
2017-05-16T01:42:30.169Z,17.34
2017-05-16T01:43:30.894Z,17.36
2017-05-16T01:44:31.624Z,17.30
2017-05-16T01:45:32.604Z,17.33
2017-05-16T01:46:33.334Z,17.31
2017-05-16T01:47:34.064Z,17.38
2017-05-16T01:48:34.791Z,17.34
2017-05-16T01:49:35.520Z,17.33
2017-05-16T01:50:36.500Z,17.39
2017-05-16T01:51:37.228Z,17.33
2017-05-16T01:52:37.955Z,17.33
2017-05-16T01:53:38.694Z,17.38
2017-05-16T01:54:39.438Z,17.36
2017-05-16T01:55:40.420Z,17.41
2017-05-16T01:56:41.153Z,17.36
2017-05-16T01:57:41.882Z,17.33
2017-05-16T01:58:42.612Z,17.34
2017-05-16T01:59:43.340Z,17.38
2017-05-16T02:00:44.320Z,17.42
2017-05-16T02:01:45.050Z,17.39
2017-05-16T02:02:45.783Z,17.38
2017-05-16T02:03:46.532Z,17.38
2017-05-16T02:04:47.258Z,17.33
2017-05-16T02:05:48.237Z,17.31
2017-05-16T02:06:48.967Z,17.36
2017-05-16T02:07:49.692Z,17.22
2017-05-16T02:08:50.422Z,17.29
2017-05-16T02:09:51.175Z,17.23
2017-05-16T02:10:52.156Z,17.22
2017-05-16T02:11:52.885Z,17.34
2017-05-16T02:12:53.616Z,17.30
2017-05-16T02:13:54.370Z,17.24
2017-05-16T02:14:55.101Z,17.27
2017-05-16T02:15:56.079Z,17.27
2017-05-16T02:16:56.809Z,17.27
2017-05-16T02:17:57.531Z,17.26
2017-05-16T02:18:58.262Z,17.30
2017-05-16T02:19:58.993Z,17.30
2017-05-16T02:20:59.971Z,17.34
2017-05-16T02:22:00.702Z,17.30
2017-05-16T02:23:01.428Z,17.38
2017-05-16T02:24:02.149Z,17.30
2017-05-16T02:25:02.883Z,17.30
2017-05-16T02:26:03.887Z,17.36
2017-05-16T02:27:04.615Z,17.33
2017-05-16T02:28:05.347Z,17.36
2017-05-16T02:29:06.072Z,17.31
2017-05-16T02:30:06.794Z,17.33
2017-05-16T02:31:07.775Z,17.36
2017-05-16T02:32:08.511Z,17.33
2017-05-16T02:33:09.259Z,17.36
2017-05-16T02:34:09.988Z,17.27
2017-05-16T02:35:10.717Z,17.26
2017-05-16T02:36:11.699Z,17.22
2017-05-16T02:37:12.425Z,17.20
2017-05-16T02:38:13.157Z,17.22
2017-05-16T02:39:13.915Z,17.19
2017-05-16T02:40:14.645Z,17.15
2017-05-16T02:41:15.887Z,17.11
2017-05-16T02:42:16.619Z,17.15
2017-05-16T02:43:17.347Z,17.16
2017-05-16T02:44:18.076Z,17.14
2017-05-16T02:46:34.646Z,17.05
2017-05-16T02:47:35.374Z,17.05
2017-05-16T02:48:36.105Z,17.06
2017-05-16T02:49:36.832Z,16.97
2017-05-16T02:50:37.559Z,17.02
2017-05-16T02:51:38.542Z,16.94
2017-05-16T02:52:39.268Z,17.02
2017-05-16T02:53:39.995Z,16.97
2017-05-16T02:54:40.718Z,16.97
2017-05-16T02:55:41.449Z,17.02
2017-05-16T02:56:42.423Z,16.91
2017-05-16T02:57:43.153Z,16.96
2017-05-16T02:58:43.897Z,17.09
2017-05-16T02:59:44.636Z,16.99
2017-05-16T03:00:45.364Z,17.05
2017-05-16T03:01:46.343Z,16.99
2017-05-16T03:02:47.080Z,17.04
2017-05-16T03:03:47.831Z,17.06
2017-05-16T03:04:48.560Z,17.04
2017-05-16T03:05:49.280Z,17.06
2017-05-16T03:06:50.259Z,17.08
2017-05-16T03:07:50.986Z,17.02
2017-05-16T03:08:51.713Z,17.02
2017-05-16T03:09:52.438Z,17.05
2017-05-16T03:10:53.194Z,16.99
2017-05-16T03:11:54.253Z,17.02
2017-05-16T03:12:54.979Z,16.99
2017-05-16T03:13:55.712Z,16.99
2017-05-16T03:14:56.440Z,17.02
2017-05-16T03:15:57.166Z,17.02
2017-05-16T03:16:58.189Z,17.02
2017-05-16T03:17:58.923Z,17.01
2017-05-16T03:18:59.647Z,17.01
2017-05-16T03:20:00.384Z,17.01
2017-05-16T03:21:01.109Z,16.99
2017-05-16T03:22:02.186Z,16.96
2017-05-16T03:23:02.916Z,16.91
2017-05-16T03:24:03.637Z,16.94
2017-05-16T03:25:04.366Z,16.84
2017-05-16T03:26:05.099Z,16.86
2017-05-16T03:27:06.080Z,16.89
2017-05-16T03:28:06.803Z,16.89
2017-05-16T03:29:07.530Z,16.96
2017-05-16T03:30:08.260Z,16.96
2017-05-16T03:31:08.992Z,16.96
2017-05-16T03:32:09.969Z,17.05
2017-05-16T03:33:10.728Z,16.99
2017-05-16T03:34:11.457Z,17.01
2017-05-16T03:35:12.189Z,16.94
2017-05-16T03:36:12.932Z,17.06
2017-05-16T03:37:13.953Z,16.93
2017-05-16T03:38:14.681Z,16.93
2017-05-16T03:39:15.414Z,16.96
2017-05-16T03:40:16.145Z,16.86
2017-05-16T03:41:16.877Z,16.97
2017-05-16T03:42:17.858Z,16.83
2017-05-16T03:43:18.587Z,16.83
2017-05-16T03:44:19.345Z,16.91
2017-05-16T03:45:20.073Z,16.91
2017-05-16T03:46:20.805Z,16.87
2017-05-16T03:47:21.786Z,16.87
2017-05-16T03:48:22.519Z,16.86
2017-05-16T03:49:23.278Z,16.89
2017-05-16T03:50:24.007Z,16.89
2017-05-16T03:51:24.738Z,16.87
2017-05-16T03:52:25.717Z,16.87
2017-05-16T03:53:26.452Z,16.81
2017-05-16T03:54:27.179Z,16.84
2017-05-16T03:55:27.908Z,16.89
2017-05-16T03:56:28.642Z,16.90
2017-05-16T03:57:29.618Z,16.87
2017-05-16T03:58:30.351Z,16.87
2017-05-16T03:59:31.082Z,16.91
2017-05-16T04:00:31.813Z,16.87
2017-05-16T04:01:32.553Z,16.89
2017-05-16T04:02:33.528Z,16.93
2017-05-16T04:03:34.263Z,16.87
2017-05-16T04:04:34.993Z,16.99
2017-05-16T04:05:35.733Z,16.87
2017-05-16T04:06:36.461Z,16.99
2017-05-16T04:07:37.443Z,17.01
2017-05-16T04:08:38.178Z,17.01
2017-05-16T04:09:38.910Z,16.91
2017-05-16T04:10:39.643Z,16.93
2017-05-16T04:11:40.378Z,16.97
2017-05-16T04:12:41.352Z,16.89
2017-05-16T04:13:42.082Z,16.94
2017-05-16T04:14:42.817Z,16.91
2017-05-16T04:15:43.548Z,16.96
2017-05-16T04:16:44.279Z,16.90
2017-05-16T04:17:45.313Z,16.87
2017-05-16T04:18:46.037Z,16.93
2017-05-16T04:19:46.770Z,16.96
2017-05-16T04:20:47.500Z,16.96
2017-05-16T04:21:48.235Z,17.01
2017-05-16T04:22:49.265Z,17.02
2017-05-16T04:23:49.999Z,17.06
2017-05-16T04:24:50.733Z,16.97
2017-05-16T04:25:51.467Z,17.01
2017-05-16T04:26:52.201Z,17.05
2017-05-16T04:27:53.234Z,17.02
2017-05-16T04:28:53.993Z,17.01
2017-05-16T04:29:54.724Z,16.93
2017-05-16T04:30:55.480Z,16.93
2017-05-16T04:31:56.219Z,17.02
2017-05-16T04:32:57.250Z,17.01
2017-05-16T04:33:57.985Z,17.01
2017-05-16T04:34:58.718Z,16.94
2017-05-16T04:35:59.443Z,16.86
2017-05-16T04:37:00.178Z,16.90
2017-05-16T04:38:01.159Z,16.89
2017-05-16T04:39:02.090Z,16.87
2017-05-16T04:40:02.823Z,16.91
2017-05-16T04:41:03.557Z,16.89
2017-05-16T04:42:04.287Z,17.01
2017-05-16T04:43:05.971Z,16.99
2017-05-16T04:44:06.707Z,16.91
2017-05-16T04:45:07.444Z,17.02
2017-05-16T04:46:08.175Z,17.01
2017-05-16T04:47:08.907Z,16.97
2017-05-16T04:48:09.939Z,16.90
2017-05-16T04:49:10.674Z,16.93
2017-05-16T04:50:11.407Z,17.02
2017-05-16T04:51:12.140Z,17.02
2017-05-16T04:52:12.876Z,16.99
2017-05-16T04:53:13.908Z,17.05
2017-05-16T04:54:14.642Z,16.97
2017-05-16T04:55:15.373Z,16.96
2017-05-16T04:56:16.108Z,17.02
2017-05-16T04:57:16.841Z,16.94
2017-05-16T04:58:17.878Z,16.97
2017-05-16T04:59:18.614Z,17.02
2017-05-16T05:00:19.344Z,17.02
2017-05-16T05:01:20.077Z,17.05
2017-05-16T05:02:20.809Z,17.09
2017-05-16T05:03:21.793Z,16.96
2017-05-16T05:04:22.525Z,17.09
2017-05-16T05:05:23.261Z,16.99
2017-05-16T05:06:23.996Z,17.04
2017-05-16T05:07:24.731Z,17.04
2017-05-16T05:08:25.790Z,17.12
2017-05-16T05:09:26.526Z,17.09
2017-05-16T05:10:27.262Z,17.09
2017-05-16T05:11:27.993Z,17.02
2017-05-16T05:12:28.986Z,16.99
2017-05-16T05:13:29.971Z,17.02
2017-05-16T05:14:30.730Z,17.05
2017-05-16T05:15:31.465Z,17.01
2017-05-16T05:16:32.197Z,17.02
2017-05-16T05:17:32.955Z,17.08
2017-05-16T05:18:33.987Z,17.08
2017-05-16T05:19:34.721Z,17.02
2017-05-16T05:20:35.455Z,17.05
2017-05-16T05:21:36.189Z,17.11
2017-05-16T05:22:39.677Z,17.12
2017-05-16T05:23:40.662Z,17.15
2017-05-16T05:24:41.395Z,17.16
2017-05-16T05:35:29.996Z,17.38
2017-05-16T05:36:30.737Z,17.38
2017-05-16T05:37:31.470Z,17.34
2017-05-16T05:38:32.199Z,17.31
2017-05-16T05:39:32.977Z,17.38
2017-05-16T05:40:33.913Z,17.38
2017-05-16T05:41:34.644Z,17.36
2017-05-16T05:45:07.559Z,17.36
2017-05-16T05:46:08.542Z,17.39
2017-05-16T05:47:09.279Z,17.38
2017-05-16T05:48:10.012Z,17.34
2017-05-16T05:49:10.744Z,17.38
2017-05-16T05:50:11.477Z,17.39
2017-05-16T05:51:12.462Z,17.34
2017-05-16T05:52:13.196Z,17.38
2017-05-16T05:53:13.931Z,17.44
2017-05-16T05:54:14.665Z,17.51
2017-05-16T05:55:15.404Z,17.52
2017-05-16T05:56:16.413Z,17.38
2017-05-16T05:57:17.144Z,17.48
2017-05-16T05:58:17.880Z,17.51
2017-05-16T05:59:18.615Z,17.52
2017-05-16T06:00:19.352Z,17.52
2017-05-16T06:01:20.358Z,17.54
2017-05-16T06:02:21.095Z,17.51
2017-05-16T06:03:21.824Z,17.51
2017-05-16T06:04:22.557Z,17.56
2017-05-16T06:05:23.293Z,17.60
2017-05-16T06:06:24.279Z,17.59
2017-05-16T06:07:25.014Z,17.68
2017-05-16T06:08:25.748Z,17.65
2017-05-16T06:09:26.481Z,17.70
2017-05-16T06:10:27.220Z,17.68
2017-05-16T06:11:28.199Z,17.71
2017-05-16T06:12:28.931Z,17.76
2017-05-16T06:13:29.670Z,17.68
2017-05-16T06:14:30.632Z,17.76
2017-05-16T06:15:31.366Z,17.68
2017-05-16T06:16:32.348Z,17.72
2017-05-16T06:17:33.081Z,17.68
2017-05-16T06:18:33.816Z,17.74
2017-05-16T06:19:34.553Z,17.86
2017-05-16T06:20:35.285Z,17.86
2017-05-16T06:21:36.273Z,17.70
2017-05-16T06:22:37.002Z,17.79
2017-05-16T06:23:37.735Z,17.85
2017-05-16T06:24:38.470Z,17.82
2017-05-16T06:25:39.208Z,17.87
2017-05-16T06:26:40.192Z,17.87
2017-05-16T06:27:40.924Z,17.80
2017-05-16T06:28:41.661Z,17.87
2017-05-16T06:29:42.395Z,17.76
2017-05-16T06:30:43.120Z,17.83
2017-05-16T06:31:44.108Z,17.80
2017-05-16T06:32:44.837Z,17.86
2017-05-16T06:33:45.571Z,17.85
2017-05-16T06:34:46.306Z,17.82
2017-05-16T06:35:47.040Z,17.90
2017-05-16T06:36:48.076Z,18.01
2017-05-16T06:37:48.840Z,17.98
2017-05-16T06:38:49.574Z,17.85
2017-05-16T06:39:50.311Z,17.86
2017-05-16T06:40:51.075Z,18.03
2017-05-16T06:41:52.111Z,17.98
2017-05-16T06:42:52.850Z,18.04
2017-05-16T06:43:53.584Z,18.01
2017-05-16T06:47:25.810Z,18.11
2017-05-16T06:48:26.538Z,18.15
2017-05-16T06:53:03.103Z,18.40
2017-05-16T06:54:03.836Z,18.37
2017-05-16T06:55:04.875Z,18.52
2017-05-16T06:59:52.691Z,18.52
2017-05-16T07:00:53.427Z,18.52
2017-05-16T07:01:54.162Z,18.49
2017-05-16T07:02:54.903Z,18.53
2017-05-16T07:03:55.638Z,18.62
2017-05-16T07:04:56.676Z,18.63
2017-05-16T07:05:57.419Z,18.71
2017-05-16T07:06:58.155Z,18.62
2017-05-16T07:07:58.896Z,18.74
2017-05-16T07:08:59.635Z,18.73
2017-05-16T07:10:00.675Z,18.71
2017-05-16T07:11:01.413Z,18.75
2017-05-16T07:12:02.153Z,18.77
2017-05-16T07:13:02.891Z,18.77
2017-05-16T07:14:03.629Z,18.74
2017-05-16T07:15:04.622Z,18.77
2017-05-16T07:16:05.361Z,18.74
2017-05-16T07:17:06.129Z,18.77
2017-05-16T07:18:06.866Z,18.78
2017-05-16T07:19:07.606Z,18.70
2017-05-16T07:20:08.637Z,18.75
2017-05-16T07:21:09.374Z,18.73
2017-05-16T07:22:10.106Z,18.66
2017-05-16T07:23:10.840Z,18.74
2017-05-16T07:24:11.580Z,18.74
2017-05-16T07:25:12.620Z,18.83
2017-05-16T07:26:13.362Z,18.81
2017-05-16T07:27:14.104Z,18.92
2017-05-16T07:28:14.843Z,18.99
2017-05-16T07:29:15.582Z,18.99
2017-05-16T07:30:16.622Z,19.09
2017-05-16T07:31:17.364Z,19.18
2017-05-16T07:32:18.134Z,19.15
2017-05-16T07:33:18.874Z,19.21
2017-05-16T07:34:19.617Z,19.26
2017-05-16T07:35:20.657Z,19.39
2017-05-16T07:36:21.404Z,19.44
2017-05-16T07:37:22.465Z,19.51
2017-05-16T07:38:23.140Z,19.48
2017-05-16T07:39:23.881Z,19.49
2017-05-16T07:40:24.871Z,19.45
2017-05-16T07:41:25.614Z,19.58
2017-05-16T07:42:26.356Z,19.63
2017-05-16T07:43:27.126Z,19.67
2017-05-16T07:44:27.863Z,19.82
2017-05-16T07:45:28.853Z,19.73
2017-05-16T07:46:29.597Z,19.81
2017-05-16T07:47:30.339Z,19.77
2017-05-16T07:48:31.080Z,19.74
2017-05-16T07:49:31.824Z,19.76
2017-05-16T07:50:32.816Z,19.77
2017-05-16T07:51:33.558Z,19.77
2017-05-16T07:52:34.325Z,19.71
2017-05-16T07:53:35.071Z,19.76
2017-05-16T07:54:35.812Z,19.79
2017-05-16T07:55:36.811Z,19.76
2017-05-16T07:56:37.569Z,19.79
2017-05-16T07:57:38.311Z,19.86
2017-05-16T07:58:39.056Z,19.94
2017-05-16T07:59:39.795Z,19.92
2017-05-16T08:00:40.784Z,19.95
2017-05-16T08:01:41.528Z,20.00
2017-05-16T08:02:42.262Z,20.06
2017-05-16T08:03:43.032Z,20.04
2017-05-16T08:04:43.772Z,20.03
2017-05-16T08:05:44.768Z,20.18
2017-05-16T08:06:45.508Z,20.16
2017-05-16T08:07:46.250Z,20.22
2017-05-16T08:08:46.992Z,20.21
2017-05-16T08:28:26.501Z,20.82
2017-05-16T08:31:58.450Z,20.92
2017-05-16T08:32:59.190Z,20.96
2017-05-16T08:39:04.665Z,21.36
2017-05-16T08:40:05.403Z,21.40
2017-05-16T08:41:06.148Z,21.36
2017-05-16T08:42:06.914Z,21.60
2017-05-16T08:43:07.662Z,21.54
2017-05-16T08:44:08.655Z,21.67
2017-05-16T08:45:09.393Z,21.79
2017-05-16T08:46:10.134Z,21.73
2017-05-16T08:47:10.878Z,21.87
2017-05-16T08:48:11.619Z,21.96
2017-05-16T08:49:12.615Z,22.08
2017-05-16T08:50:13.355Z,22.25
2017-05-16T08:51:14.362Z,22.17
2017-05-16T08:52:15.103Z,22.29
2017-05-16T08:53:15.845Z,22.51
2017-05-16T08:54:16.841Z,22.88
2017-05-16T08:55:17.614Z,23.06
2017-05-16T08:56:18.354Z,23.10
2017-05-16T08:57:19.097Z,23.08
2017-05-16T08:58:22.424Z,23.05
2017-05-16T09:14:30.577Z,23.00
2017-05-16T09:15:31.321Z,23.21
2017-05-16T09:16:32.060Z,23.32
2017-05-16T09:17:32.803Z,23.31
2017-05-16T09:18:33.545Z,23.36
2017-05-16T09:19:34.535Z,22.94
2017-05-16T09:20:35.279Z,23.18
2017-05-16T09:21:36.021Z,23.24
2017-05-16T09:22:36.765Z,23.39
2017-05-16T10:08:59.485Z,23.77
2017-05-16T10:10:00.225Z,23.58
2017-05-16T10:11:00.965Z,23.71
2017-05-16T10:32:18.502Z,23.55
2017-05-16T10:33:19.246Z,23.68
2017-05-16T10:34:19.984Z,23.62
2017-05-16T10:36:42.958Z,23.98
2017-05-16T10:37:44.000Z,24.17
2017-05-16T10:38:44.742Z,24.21
2017-05-16T10:39:45.477Z,24.23
2017-05-16T10:40:46.222Z,24.13
2017-05-16T10:41:46.964Z,24.06
2017-05-16T10:42:48.005Z,24.10
2017-05-16T10:43:48.740Z,24.29
2017-05-16T10:44:49.486Z,24.33
2017-05-16T10:45:50.226Z,24.40
2017-05-16T10:46:50.992Z,24.53
2017-05-16T10:47:52.034Z,24.54
2017-05-16T10:48:52.771Z,24.53
2017-05-16T10:49:53.514Z,24.60
2017-05-16T10:50:54.257Z,24.86
2017-05-16T10:51:55.003Z,24.96
2017-05-16T10:52:56.046Z,24.99
2017-05-16T10:53:56.783Z,25.14
2017-05-16T10:54:57.523Z,25.07
2017-05-16T10:55:58.267Z,25.23
2017-05-16T10:56:59.004Z,25.54
2017-05-16T10:58:00.050Z,25.31
2017-05-16T10:59:00.795Z,25.23
2017-05-16T11:00:01.537Z,25.03
2017-05-16T11:07:22.757Z,24.98
2017-05-16T11:08:23.498Z,24.63
2017-05-16T11:09:24.242Z,24.58
2017-05-16T11:10:27.288Z,24.66
2017-05-16T11:15:04.445Z,25.03
2017-05-16T11:16:05.186Z,25.13
2017-05-16T11:20:53.094Z,26.03
2017-05-16T11:21:53.841Z,25.80
2017-05-16T11:22:54.585Z,25.85
2017-05-16T11:23:55.325Z,25.78
2017-05-16T11:24:56.068Z,25.69
2017-05-16T11:25:57.160Z,25.77
2017-05-16T11:32:04.777Z,26.15
2017-05-16T11:33:05.522Z,26.09
2017-05-16T11:34:06.288Z,26.13
2017-05-16T11:35:07.058Z,25.98
2017-05-16T11:36:07.804Z,25.83
2017-05-16T11:39:40.072Z,25.46
2017-05-16T11:40:41.016Z,25.25
2017-05-16T11:45:17.913Z,25.38
2017-05-16T11:46:18.656Z,24.98
2017-05-16T11:47:19.396Z,25.07
2017-05-16T11:48:20.140Z,25.04
2017-05-16T11:52:57.032Z,24.89
2017-05-16T11:53:57.772Z,24.88
2017-05-16T11:54:58.513Z,25.08
2017-05-16T11:55:59.255Z,25.11
2017-05-16T11:56:59.997Z,25.40
2017-05-16T11:58:00.989Z,25.32
2017-05-16T12:04:04.412Z,25.07
2017-05-16T12:05:05.151Z,25.18
2017-05-16T12:06:05.893Z,24.92
2017-05-16T12:07:06.634Z,24.93
2017-05-16T12:10:38.850Z,24.66
2017-05-16T12:11:39.593Z,24.74
2017-05-16T12:15:11.790Z,24.92
2017-05-16T12:16:12.528Z,24.92
2017-05-16T12:21:00.582Z,25.08
2017-05-16T12:22:01.325Z,25.10
2017-05-16T12:23:02.067Z,24.98
2017-05-16T12:27:49.863Z,25.21
2017-05-16T12:28:50.802Z,25.33
2017-05-16T12:29:51.544Z,25.13
2017-05-16T12:30:52.616Z,25.07
2017-05-16T12:31:53.285Z,25.07
2017-05-16T12:32:54.282Z,25.29
2017-05-16T12:33:55.017Z,25.18
2017-05-16T12:34:55.759Z,25.13
2017-05-16T12:35:56.502Z,25.08
2017-05-16T12:36:57.243Z,25.14
2017-05-16T12:37:58.238Z,25.31
2017-05-16T12:38:58.979Z,25.50
2017-05-16T12:39:59.722Z,25.59
2017-05-16T12:41:00.455Z,25.59
2017-05-16T12:42:01.197Z,25.36
2017-05-16T12:43:02.188Z,25.41
2017-05-16T12:44:02.928Z,25.62
2017-05-16T12:45:03.671Z,25.75
2017-05-16T12:53:38.275Z,25.88
2017-05-16T12:54:39.009Z,25.77
2017-05-16T12:55:39.750Z,25.80
2017-05-16T12:56:40.492Z,25.80
2017-05-16T12:57:41.226Z,25.84
2017-05-16T13:01:13.422Z,26.25
2017-05-16T13:02:14.163Z,26.44
2017-05-16T13:05:50.340Z,26.03
2017-05-16T13:06:51.332Z,25.80
2017-05-16T13:07:52.405Z,26.00
2017-05-16T13:08:53.078Z,26.22
2017-05-16T13:09:53.837Z,26.15
2017-05-16T13:10:54.581Z,26.03
2017-05-16T13:11:55.573Z,26.19
2017-05-16T13:15:27.517Z,26.09
2017-05-16T13:16:28.285Z,26.22
2017-05-16T13:17:29.304Z,26.29
2017-05-16T13:18:30.046Z,26.28
2017-05-16T13:19:30.789Z,26.28
2017-05-16T13:20:31.531Z,26.33
2017-05-16T13:21:32.298Z,26.28
2017-05-16T13:22:33.289Z,26.23
2017-05-16T13:23:34.034Z,26.28
2017-05-16T13:24:34.805Z,26.38
2017-05-16T13:25:35.548Z,26.31
2017-05-16T13:26:36.285Z,26.47
2017-05-16T13:27:37.274Z,26.53
2017-05-16T13:28:38.042Z,26.65
2017-05-16T13:29:38.787Z,26.62
2017-05-16T13:30:39.552Z,26.36
2017-05-16T13:31:40.317Z,26.47
2017-05-16T13:41:30.575Z,26.03
2017-05-16T13:42:31.277Z,26.25
2017-05-16T13:47:16.914Z,26.85
2017-05-16T13:48:17.657Z,26.90
2017-05-16T13:49:18.404Z,26.84
2017-05-16T13:50:19.146Z,26.66
2017-05-16T13:51:19.891Z,26.58
2017-05-16T13:52:20.881Z,26.73
2017-05-16T13:53:21.624Z,26.71
2017-05-16T13:54:22.367Z,26.95
2017-05-16T13:55:23.110Z,26.84
2017-05-16T13:56:23.856Z,26.60
2017-05-16T13:57:26.852Z,26.52
2017-05-16T13:58:27.844Z,26.58
2017-05-16T13:59:28.585Z,26.63
2017-05-16T14:00:29.330Z,26.83
2017-05-16T14:01:30.075Z,26.95
2017-05-16T14:02:30.844Z,27.18
2017-05-16T14:03:31.837Z,27.44
2017-05-16T14:07:03.787Z,28.19
2017-05-16T14:11:40.742Z,28.81
2017-05-16T14:16:17.697Z,30.03
2017-05-16T14:17:18.472Z,29.93
2017-05-16T14:18:19.248Z,30.32
2017-05-16T14:19:19.998Z,30.44
2017-05-16T14:22:52.209Z,30.48
2017-05-16T14:28:57.641Z,28.51
2017-05-16T14:29:58.387Z,28.19
2017-05-16T14:30:59.132Z,28.00
2017-05-16T14:34:31.336Z,28.05
2017-05-16T14:35:32.078Z,27.98
2017-05-16T14:36:32.821Z,27.78
2017-05-16T14:37:33.588Z,27.82
2017-05-16T14:38:34.330Z,28.05
2017-05-16T14:39:35.328Z,28.22
2017-05-16T14:43:07.531Z,27.83
2017-05-16T14:44:08.277Z,27.85
2017-05-16T15:29:15.412Z,27.17
2017-05-16T15:30:16.157Z,27.03
2017-05-16T15:31:16.898Z,27.05
2017-05-16T15:32:20.192Z,27.07
2017-05-16T15:33:20.960Z,27.14
2017-05-16T15:34:21.953Z,27.07
2017-05-16T15:35:22.698Z,27.02
2017-05-16T15:36:23.468Z,26.93
2017-05-16T15:37:24.212Z,26.89
2017-05-16T15:38:24.952Z,26.90
2017-05-16T15:39:25.946Z,26.90
2017-05-16T15:40:26.688Z,26.90
2017-05-16T15:41:27.427Z,26.95
2017-05-16T15:42:28.169Z,27.02
2017-05-16T15:43:28.912Z,27.03
2017-05-16T15:44:29.952Z,27.10
2017-05-16T15:45:30.696Z,27.17
2017-05-16T15:46:31.436Z,27.27
2017-05-16T15:47:32.203Z,27.22
2017-05-16T15:48:32.968Z,27.30
2017-05-16T15:49:33.963Z,27.35
2017-05-16T15:50:34.702Z,27.21
2017-05-16T15:51:35.443Z,27.18
2017-05-16T15:52:36.184Z,27.03
2017-05-16T15:53:36.926Z,27.02
2017-05-16T15:54:37.919Z,26.84
2017-05-16T15:55:38.660Z,26.70
2017-05-16T15:56:39.402Z,26.71
2017-05-16T15:57:40.143Z,26.71
2017-05-16T15:58:40.882Z,26.65
2017-05-16T15:59:41.922Z,26.48
2017-05-16T16:00:42.662Z,26.41
2017-05-16T16:01:43.402Z,26.47
2017-05-16T16:02:44.146Z,26.62
2017-05-16T16:03:44.889Z,26.44
2017-05-16T16:04:45.955Z,26.21
2017-05-16T16:05:46.695Z,26.34
2017-05-16T16:06:47.436Z,26.41
2017-05-16T16:07:48.174Z,26.38
2017-05-16T16:08:48.913Z,26.45
2017-05-16T16:09:49.907Z,26.45
2017-05-16T16:10:50.649Z,26.37
2017-05-16T16:11:51.389Z,26.36
2017-05-16T16:12:52.128Z,26.29
2017-05-16T16:13:52.896Z,26.26
2017-05-16T16:14:53.884Z,26.18
2017-05-16T16:15:54.629Z,26.26
2017-05-16T16:16:55.395Z,26.19
2017-05-16T16:17:56.162Z,26.23
2017-05-16T16:18:56.897Z,26.21
2017-05-16T16:19:57.891Z,26.31
2017-05-16T16:20:58.632Z,26.29
2017-05-16T16:21:59.372Z,26.40
2017-05-16T16:23:00.117Z,26.38
2017-05-16T16:24:00.848Z,26.40
2017-05-16T16:25:01.842Z,26.34
2017-05-16T16:26:02.584Z,26.40
2017-05-16T16:27:03.319Z,26.56
2017-05-16T16:36:53.510Z,26.63
2017-05-16T16:37:54.252Z,26.73
2017-05-16T16:38:54.993Z,26.73
2017-05-16T16:39:55.731Z,26.78
2017-05-16T16:40:56.472Z,26.83
2017-05-16T16:41:57.461Z,26.81
2017-05-16T16:42:58.224Z,26.84
2017-05-16T16:43:58.962Z,26.81
2017-05-16T16:44:59.699Z,26.80
2017-05-16T16:46:00.443Z,26.73
2017-05-16T16:47:01.429Z,26.71
2017-05-16T16:48:02.166Z,26.74
2017-05-16T16:49:02.907Z,26.71
2017-05-16T16:50:03.644Z,26.71
2017-05-16T16:51:04.385Z,26.59
2017-05-16T16:57:11.877Z,26.26
2017-05-16T16:58:12.616Z,26.38
2017-05-16T16:59:13.380Z,26.43
2017-05-16T17:00:14.121Z,26.43
2017-05-16T17:10:04.302Z,26.66
2017-05-16T17:11:05.040Z,26.62
2017-05-16T17:12:05.782Z,26.75
2017-05-16T17:13:06.522Z,26.70
2017-05-16T17:14:07.292Z,26.68
2017-05-16T17:15:08.285Z,26.65
2017-05-16T17:16:09.027Z,26.63
2017-05-16T17:17:09.768Z,26.65
2017-05-16T17:18:13.136Z,26.66
2017-05-16T17:19:13.879Z,26.58
2017-05-16T17:20:14.868Z,26.71
2017-05-16T17:21:15.635Z,26.56
2017-05-16T17:22:16.400Z,26.59
2017-05-16T17:23:17.142Z,26.63
2017-05-16T17:24:17.880Z,26.59
2017-05-16T17:31:42.982Z,26.62
2017-05-16T17:32:43.723Z,26.52
2017-05-16T17:33:44.485Z,26.51
2017-05-16T17:34:45.222Z,26.41
2017-05-16T17:35:45.963Z,26.45
2017-05-16T17:43:04.939Z,26.26
2017-05-16T17:44:05.676Z,26.22
2017-05-16T17:45:06.411Z,26.06
2017-05-16T17:46:07.178Z,26.09
2017-05-16T17:47:07.935Z,25.96
2017-05-16T17:48:08.922Z,25.96
2017-05-16T17:52:56.729Z,25.90
2017-05-16T17:53:57.476Z,25.91
2017-05-16T17:54:58.210Z,25.87
2017-05-16T17:55:58.952Z,25.96
2017-05-16T17:56:59.720Z,26.05
2017-05-16T17:58:00.712Z,25.91
2017-05-16T17:59:01.450Z,25.87
2017-05-16T18:00:02.215Z,25.78
2017-05-16T18:01:02.954Z,25.85
2017-05-16T18:02:03.690Z,25.87
2017-05-16T18:03:04.678Z,25.81
2017-05-16T18:04:05.415Z,25.75
2017-05-16T18:05:06.158Z,25.65
2017-05-16T18:14:56.318Z,25.11
2017-05-16T18:15:57.079Z,25.10
2017-05-16T18:16:58.098Z,25.13
2017-05-16T18:17:58.831Z,25.13
2017-05-16T18:18:59.569Z,25.07
2017-05-16T18:20:00.581Z,24.96
2017-05-16T18:21:01.314Z,25.03
2017-05-16T18:22:02.051Z,24.96
2017-05-16T18:23:02.810Z,24.98
2017-05-16T18:24:03.546Z,24.98
2017-05-16T18:27:39.828Z,24.95
2017-05-16T18:28:40.564Z,24.86
2017-05-16T18:29:41.298Z,24.85
2017-05-16T18:30:42.037Z,24.88
2017-05-16T18:34:20.498Z,24.76
2017-05-16T18:35:21.228Z,24.74
2017-05-16T18:36:21.990Z,24.77
2017-05-16T18:37:22.721Z,24.68
2017-05-16T18:41:59.337Z,24.55